NCAR-RAP Real-Time Weather Data

Output produced by METARs form (08 May 2021  01:02 UTC)
found at http://weather.rap.ucar.edu/surface/
 
KBTM 080053Z AUTO 34010KT 10SM -RA BKN021 BKN027 OVC035 05/02 A2994 RMK AO2 SLP126 P0002 T00500022
KBTM 080021Z AUTO 34011KT 8SM -RA FEW016 BKN020 OVC036 05/02 A2992 RMK AO2 P0001 T00500022
KBTM 072353Z AUTO 31013KT 5SM -RA BR FEW019 OVC032 05/03 A2992 RMK AO2 PK WND 27029/2323 WSHFT 2310 RAB16 SLP117 P0007 60011 T00500033 10128 20050 53007
KBTM 072335Z AUTO 29017G21KT 4SM RA BR SCT021 BKN030 OVC038 06/05 A2989 RMK AO2 PK WND 27029/2323 WSHFT 2310 RAB16 PRESRR P0004 T00610050
KBTM 072324Z AUTO 28022G29KT 6SM -RA BR BKN024 BKN040 OVC100 07/04 A2987 RMK AO2 PK WND 27029/2323 WSHFT 2310 RAB16 P0001 T00670044
KBTM 072253Z AUTO 35004KT 10SM BKN090 OVC100 10/04 A2985 RMK AO2 RAE19 SLP080 P0000 T01000044
KBTM 072153Z AUTO 00000KT 10SM -RA FEW032 OVC050 09/04 A2988 RMK AO2 SLP093 P0001 T00890039
KBTM 072053Z AUTO 04004KT 10SM -RA BKN043 OVC060 09/05 A2990 RMK AO2 RAB01 SLP098 P0003 60003 T00890050 58003
KBTM 071953Z AUTO 34006KT 10SM OVC047 11/03 A2990 RMK AO2 RAB26E38 SLP094 P0000 T01060028
KBTM 071853Z AUTO 35009KT 10SM BKN048 OVC060 13/02 A2990 RMK AO2 SLP097 T01280017
KBTM 071753Z AUTO 35009KT 10SM OVC060 14/02 A2991 RMK AO2 SLP092 T01390017 10144 20094 58013
KBTM 071653Z AUTO 34010G17KT 10SM SCT060 14/02 A2992 RMK AO2 SLP089 T01440022
KBTM 071553Z AUTO 33012G20KT 10SM BKN060 OVC110 14/02 A2994 RMK AO2 SLP089 T01390022
KBTM 071453Z AUTO 32015G21KT 10SM BKN060 13/02 A2995 RMK AO2 SLP093 T01330022 51012
KBTM 071353Z AUTO 00000KT 10SM SCT100 12/02 A2995 RMK AO2 SLP093 T01170017
KBTM 071253Z AUTO 16007KT 10SM SCT100 09/01 A2992 RMK AO2 SLP081 T00940011
KBTM 071153Z AUTO 28007KT 10SM FEW065 BKN095 11/01 A2991 RMK AO2 SLP077 T01060011 10128 20089 56016